Time;durP1;ratioP1;P1;durP2;ratioP2;P2;SDS_P1;SDS_P2;PMS_P1;PMS_P2;Temp;Humidity;BMP_temperature;BMP_pressure;BME280_temperature;BME280_humidity;BME280_pressure;Samples;Min_cycle;Max_cycle;Signal;HPM_P1;HPM_P2
2024/01/23 00:02:09;;;;;;;3.22;1.75;;;10.40;82.00;;;;;;5013507;28;20022;-81
2024/01/23 00:04:35;;;;;;;4.00;1.73;;;10.40;82.00;;;;;;5010496;28;20516;-80
2024/01/23 00:07:01;;;;;;;3.00;1.33;;;10.40;82.00;;;;;;4994170;28;20026;-80
2024/01/23 00:09:27;;;;;;;2.40;1.50;;;10.40;82.00;;;;;;4993493;28;20116;-81
2024/01/23 00:11:54;;;;;;;2.88;1.50;;;10.40;82.00;;;;;;5009411;28;20034;-74
2024/01/23 00:14:19;;;;;;;3.65;1.52;;;10.40;82.00;;;;;;5006795;28;20026;-81
2024/01/23 00:16:45;;;;;;;4.53;1.67;;;10.40;82.00;;;;;;5009253;28;20029;-88
2024/01/23 00:19:11;;;;;;;4.28;1.70;;;10.40;82.00;;;;;;5009357;28;20033;-81
2024/01/23 00:21:37;;;;;;;3.33;1.75;;;10.40;82.00;;;;;;4995557;28;20018;-87
2024/01/23 00:24:03;;;;;;;3.10;1.73;;;10.40;82.00;;;;;;5008415;28;20033;-81
2024/01/23 00:26:29;;;;;;;5.13;2.33;;;10.40;82.00;;;;;;5007876;28;20030;-89
2024/01/23 00:28:55;;;;;;;3.30;1.70;;;10.40;82.00;;;;;;5011962;28;20057;-75
2024/01/23 00:31:20;;;;;;;4.35;1.67;;;10.40;81.90;;;;;;5003326;28;20075;-81
2024/01/23 00:33:46;;;;;;;3.60;1.60;;;10.30;81.90;;;;;;5009922;28;20026;-80
2024/01/23 00:36:12;;;;;;;2.78;1.40;;;10.30;81.90;;;;;;4991631;28;20026;-81
2024/01/23 00:38:38;;;;;;;4.38;1.80;;;10.30;81.90;;;;;;4991104;28;20027;-75
2024/01/23 00:41:04;;;;;;;2.67;1.50;;;10.30;81.90;;;;;;4998932;28;20489;-75
2024/01/23 00:43:30;;;;;;;3.63;1.65;;;10.30;81.90;;;;;;5006425;28;20038;-84
2024/01/23 00:45:56;;;;;;;3.75;1.40;;;10.30;82.00;;;;;;5009276;28;20029;-88
2024/01/23 00:48:22;;;;;;;3.72;1.67;;;10.30;81.90;;;;;;4999710;28;20018;-79
2024/01/23 00:50:47;;;;;;;3.08;1.48;;;10.30;81.90;;;;;;4993113;28;20364;-75
2024/01/23 00:53:13;;;;;;;4.45;1.85;;;10.30;82.00;;;;;;5001246;28;20261;-86
2024/01/23 00:55:39;;;;;;;4.95;1.63;;;10.30;81.90;;;;;;5008353;28;20117;-87
2024/01/23 00:58:05;;;;;;;3.42;1.60;;;10.30;81.90;;;;;;5019205;28;20403;-75
2024/01/23 01:00:31;;;;;;;3.85;1.55;;;10.30;81.90;;;;;;5005710;28;20115;-80
2024/01/23 01:02:57;;;;;;;4.43;1.70;;;10.30;81.90;;;;;;5003225;28;20061;-81
2024/01/23 01:05:22;;;;;;;4.03;1.90;;;10.30;82.60;;;;;;5006227;28;20030;-87
2024/01/23 01:07:48;;;;;;;3.03;1.50;;;10.30;82.00;;;;;;5021746;28;20088;-81
2024/01/23 01:10:14;;;;;;;3.58;1.67;;;10.30;81.90;;;;;;5003008;28;20076;-80
2024/01/23 01:12:40;;;;;;;5.00;1.52;;;10.30;82.00;;;;;;5002526;28;20046;-74
2024/01/23 01:15:06;;;;;;;3.65;1.52;;;10.30;81.90;;;;;;4987778;28;20036;-75
2024/01/23 01:17:32;;;;;;;4.68;1.52;;;10.30;82.00;;;;;;5008564;28;20036;-80
2024/01/23 01:19:58;;;;;;;5.05;1.88;;;10.20;81.90;;;;;;4984885;28;20022;-80
2024/01/23 01:22:24;;;;;;;5.57;2.05;;;10.30;82.00;;;;;;5006413;28;20494;-75
2024/01/23 01:24:49;;;;;;;3.80;1.73;;;10.20;81.90;;;;;;5006891;28;20426;-76
2024/01/23 01:27:15;;;;;;;3.92;1.77;;;10.20;81.90;;;;;;5005438;28;20509;-81
2024/01/23 01:29:41;;;;;;;4.70;1.58;;;10.20;81.90;;;;;;4988916;28;20046;-88
2024/01/23 01:32:07;;;;;;;4.15;1.83;;;10.20;81.90;;;;;;4994830;28;20057;-86
2024/01/23 01:34:33;;;;;;;5.55;2.00;;;10.20;81.90;;;;;;5025423;28;20045;-88
2024/01/23 01:37:02;;;;;;;4.05;1.88;;;10.20;81.90;;;;;;5009522;28;20022;-80
2024/01/23 01:39:28;;;;;;;4.15;2.15;;;10.20;81.90;;;;;;4992854;28;20091;-75
2024/01/23 01:41:54;;;;;;;4.43;1.73;;;10.20;81.90;;;;;;5003511;28;20033;-80
2024/01/23 01:44:20;;;;;;;3.97;1.80;;;10.20;82.00;;;;;;5000227;28;20060;-87
2024/01/23 01:46:47;;;;;;;3.63;2.08;;;10.20;81.90;;;;;;4999301;28;20072;-88
2024/01/23 01:49:15;;;;;;;4.03;1.50;;;10.20;81.90;;;;;;4996865;28;20509;-75
2024/01/23 01:51:42;;;;;;;3.78;1.92;;;10.20;81.90;;;;;;4998783;28;20025;-81
2024/01/23 01:54:08;;;;;;;5.93;1.92;;;10.20;81.90;;;;;;5008697;28;20026;-80
2024/01/23 01:56:34;;;;;;;4.65;2.60;;;10.20;82.00;;;;;;5003906;28;20216;-81
2024/01/23 01:59:00;;;;;;;6.63;2.10;;;10.20;82.60;;;;;;4990485;28;20038;-75
2024/01/23 02:01:27;;;;;;;3.35;1.77;;;10.20;81.90;;;;;;5004230;28;20041;-81
2024/01/23 02:03:53;;;;;;;4.97;1.75;;;10.20;81.90;;;;;;5001819;28;20099;-80
2024/01/23 02:06:23;;;;;;;3.13;1.60;;;10.20;82.00;;;;;;5025705;28;20037;-81
2024/01/23 02:08:50;;;;;;;5.30;1.80;;;10.10;81.90;;;;;;5020689;28;20037;-80
2024/01/23 02:11:15;;;;;;;4.72;2.00;;;10.10;82.00;;;;;;5006226;28;20029;-79
2024/01/23 02:13:42;;;;;;;4.43;1.70;;;10.10;81.90;;;;;;5007534;28;20092;-81
2024/01/23 02:16:09;;;;;;;4.60;1.83;;;10.10;82.00;;;;;;5004380;28;20037;-88
2024/01/23 02:18:34;;;;;;;4.28;1.70;;;10.10;82.00;;;;;;5001243;28;20022;-80
2024/01/23 02:21:00;;;;;;;3.92;1.55;;;10.10;82.00;;;;;;4990321;28;20094;-80
2024/01/23 02:23:30;;;;;;;5.18;1.80;;;10.10;82.00;;;;;;4989676;28;20034;-80
2024/01/23 02:25:56;;;;;;;2.95;1.50;;;10.10;82.10;;;;;;5004597;28;20176;-80
2024/01/23 02:28:22;;;;;;;4.88;1.95;;;10.00;82.00;;;;;;5022534;28;20505;-87
2024/01/23 02:30:48;;;;;;;2.88;1.60;;;10.00;82.00;;;;;;4991247;28;20029;-80
2024/01/23 02:33:14;;;;;;;4.93;1.92;;;10.00;82.10;;;;;;5002517;28;20030;-81
2024/01/23 02:35:40;;;;;;;3.13;1.58;;;10.00;82.10;;;;;;5007952;28;20119;-80
2024/01/23 02:38:08;;;;;;;6.22;1.90;;;10.00;82.10;;;;;;4992521;28;20093;-80
2024/01/23 02:40:34;;;;;;;2.92;1.50;;;10.00;82.10;;;;;;5015427;28;20387;-81
2024/01/23 02:43:00;;;;;;;7.10;1.70;;;10.00;82.10;;;;;;5012216;28;20025;-86
2024/01/23 02:45:26;;;;;;;4.28;1.70;;;9.90;82.00;;;;;;5007587;28;20167;-86
2024/01/23 02:47:52;;;;;;;4.57;1.73;;;9.90;82.00;;;;;;4995859;28;20033;-81
2024/01/23 02:50:18;;;;;;;3.22;1.80;;;9.90;82.00;;;;;;5009117;28;20026;-87
2024/01/23 02:52:44;;;;;;;3.55;1.80;;;9.90;82.00;;;;;;5003488;28;20030;-81
2024/01/23 02:55:10;;;;;;;4.10;1.63;;;9.90;81.90;;;;;;4991027;28;20088;-81
2024/01/23 02:57:35;;;;;;;3.58;1.63;;;9.90;81.90;;;;;;4995540;28;20034;-80
2024/01/23 03:00:01;;;;;;;4.53;1.88;;;9.90;82.00;;;;;;5011650;28;20022;-80
2024/01/23 03:02:28;;;;;;;3.55;1.50;;;9.80;81.90;;;;;;4992392;28;20030;-75
2024/01/23 03:04:54;;;;;;;3.58;1.90;;;9.80;81.90;;;;;;4994711;28;20030;-87
2024/01/23 03:07:20;;;;;;;5.80;2.10;;;9.80;81.90;;;;;;5010029;28;20036;-81
2024/01/23 03:09:45;;;;;;;3.38;1.63;;;9.80;81.90;;;;;;5008302;28;20067;-81
2024/01/23 03:12:19;;;;;;;3.05;1.58;;;9.80;81.90;;;;;;4997018;28;20486;-75
2024/01/23 03:14:46;;;;;;;4.85;2.10;;;9.80;81.90;;;;;;4994818;28;20030;-75
2024/01/23 03:17:13;;;;;;;5.40;2.28;;;9.80;81.90;;;;;;5005346;28;20084;-81
2024/01/23 03:19:40;;;;;;;2.80;1.63;;;9.80;81.90;;;;;;5012283;28;20030;-81
2024/01/23 03:22:06;;;;;;;3.53;1.77;;;9.80;82.50;;;;;;4996569;28;20121;-81
2024/01/23 03:24:32;;;;;;;4.00;1.58;;;9.80;81.90;;;;;;4990232;28;20022;-76
2024/01/23 03:26:59;;;;;;;4.97;1.98;;;9.80;81.90;;;;;;4987181;28;20030;-81
2024/01/23 03:29:25;;;;;;;4.90;1.88;;;9.80;81.90;;;;;;5009590;28;20084;-75
2024/01/23 03:31:52;;;;;;;3.08;1.50;;;9.70;82.50;;;;;;5004357;28;20041;-88
2024/01/23 03:34:21;;;;;;;3.75;1.63;;;9.70;81.90;;;;;;5003015;28;20038;-75
2024/01/23 03:36:46;;;;;;;2.63;1.50;;;9.70;81.90;;;;;;4994452;28;20025;-75
2024/01/23 03:39:12;;;;;;;4.68;1.83;;;9.70;82.50;;;;;;4993587;28;20026;-75
2024/01/23 03:41:38;;;;;;;5.13;2.00;;;9.70;81.90;;;;;;4993485;28;20485;-88
2024/01/23 03:44:07;;;;;;;5.72;2.00;;;9.70;81.90;;;;;;5025793;28;20499;-80
2024/01/23 03:46:33;;;;;;;6.00;1.80;;;9.70;81.90;;;;;;4997499;28;20401;-75
2024/01/23 03:48:59;;;;;;;3.83;1.90;;;9.70;81.90;;;;;;4995722;28;20030;-75
2024/01/23 03:51:25;;;;;;;3.20;1.80;;;9.70;81.90;;;;;;5009782;28;20040;-81
2024/01/23 03:53:51;;;;;;;5.47;2.13;;;9.70;81.90;;;;;;4994973;28;20037;-86
2024/01/23 03:56:17;;;;;;;7.15;2.00;;;9.70;81.90;;;;;;5025997;28;20026;-88
2024/01/23 03:58:43;;;;;;;5.03;1.80;;;9.70;81.90;;;;;;4992480;28;20027;-81
2024/01/23 04:01:09;;;;;;;6.35;2.10;;;9.70;81.90;;;;;;4993486;28;20121;-80
2024/01/23 04:03:35;;;;;;;5.60;1.80;;;9.70;81.90;;;;;;5019141;28;20035;-75
2024/01/23 04:06:01;;;;;;;3.83;1.65;;;9.60;81.90;;;;;;5002517;28;20030;-75
2024/01/23 04:08:26;;;;;;;4.75;1.70;;;9.60;81.80;;;;;;5008096;28;20102;-75
2024/01/23 04:10:52;;;;;;;4.68;1.80;;;9.60;81.80;;;;;;5021057;28;20060;-81
2024/01/23 04:13:18;;;;;;;4.47;1.60;;;9.60;81.80;;;;;;5003292;28;20156;-75
2024/01/23 04:15:44;;;;;;;5.30;2.13;;;9.60;81.80;;;;;;4993288;28;20124;-81
2024/01/23 04:18:10;;;;;;;3.45;1.65;;;9.60;81.80;;;;;;5013122;28;20037;-87
2024/01/23 04:20:37;;;;;;;3.72;1.92;;;9.60;81.80;;;;;;5008423;28;20018;-86
2024/01/23 04:23:03;;;;;;;4.07;1.75;;;9.50;81.80;;;;;;5014999;28;20470;-81
2024/01/23 04:25:29;;;;;;;4.18;1.67;;;9.60;81.90;;;;;;5006658;28;20087;-87
2024/01/23 04:27:57;;;;;;;3.85;1.90;;;9.50;81.80;;;;;;5004632;28;20097;-80
2024/01/23 04:30:23;;;;;;;3.75;1.60;;;9.60;81.90;;;;;;5008275;28;20042;-88
2024/01/23 04:32:51;;;;;;;4.80;1.60;;;9.60;81.90;;;;;;5009027;28;20037;-81
2024/01/23 04:35:17;;;;;;;3.45;1.45;;;9.50;81.80;;;;;;4992158;28;20025;-75
2024/01/23 04:37:43;;;;;;;3.50;1.95;;;9.50;81.80;;;;;;5019717;28;20032;-75
2024/01/23 04:40:09;;;;;;;4.45;1.50;;;9.50;81.80;;;;;;5006832;28;20086;-81
2024/01/23 04:42:36;;;;;;;3.53;1.80;;;9.50;81.80;;;;;;5002374;28;20039;-75
2024/01/23 04:45:03;;;;;;;4.00;1.85;;;9.50;81.90;;;;;;5021843;28;20041;-88
2024/01/23 04:47:31;;;;;;;3.60;1.50;;;9.50;81.80;;;;;;5004360;28;20077;-88
2024/01/23 04:49:57;;;;;;;2.53;1.55;;;9.50;81.80;;;;;;5005868;28;20026;-87
2024/01/23 04:52:23;;;;;;;3.17;1.60;;;9.50;81.80;;;;;;5025726;28;20040;-87
2024/01/23 04:54:51;;;;;;;2.95;1.60;;;9.50;81.80;;;;;;4994273;28;20018;-81
2024/01/23 04:57:18;;;;;;;3.75;1.58;;;9.50;81.90;;;;;;5004674;28;20029;-87
2024/01/23 04:59:48;;;;;;;3.88;1.83;;;9.40;81.80;;;;;;5008094;28;20022;-80
2024/01/23 05:02:14;;;;;;;4.35;1.90;;;9.40;81.80;;;;;;4985142;28;20517;-75
2024/01/23 05:04:40;;;;;;;2.65;1.60;;;9.40;81.80;;;;;;5024816;28;20026;-81
2024/01/23 05:07:06;;;;;;;4.10;1.63;;;9.40;81.80;;;;;;4986730;28;20061;-81
2024/01/23 05:09:31;;;;;;;3.63;1.65;;;9.40;81.80;;;;;;5001444;28;20030;-87
2024/01/23 05:12:00;;;;;;;3.35;1.45;;;9.40;81.80;;;;;;5010236;28;20077;-80
2024/01/23 05:14:26;;;;;;;2.35;1.63;;;9.40;81.80;;;;;;5011087;28;20049;-81
2024/01/23 05:16:52;;;;;;;2.45;1.63;;;9.40;81.80;;;;;;4992611;28;20018;-87
2024/01/23 05:19:17;;;;;;;2.33;1.63;;;9.40;82.40;;;;;;4992786;28;20018;-86
2024/01/23 05:21:43;;;;;;;3.63;1.65;;;9.40;81.80;;;;;;5010692;28;20120;-87
2024/01/23 05:24:12;;;;;;;5.55;1.85;;;9.40;81.80;;;;;;4992062;28;20022;-81
2024/01/23 05:26:38;;;;;;;3.42;1.60;;;9.40;81.80;;;;;;5004033;28;20144;-75
2024/01/23 05:29:04;;;;;;;4.13;1.83;;;9.40;81.80;;;;;;4999654;28;20117;-81
2024/01/23 05:31:30;;;;;;;3.00;1.60;;;9.40;81.90;;;;;;4982716;28;20026;-86
2024/01/23 05:33:56;;;;;;;3.47;1.65;;;9.40;81.90;;;;;;5021445;28;20038;-75
2024/01/23 05:36:21;;;;;;;2.60;1.70;;;9.40;81.90;;;;;;4995608;28;20029;-83
2024/01/23 05:38:48;;;;;;;3.08;1.60;;;9.40;81.90;;;;;;5012511;28;20107;-88
2024/01/23 05:41:14;;;;;;;2.20;1.58;;;9.30;81.90;;;;;;4987970;28;20026;-76
2024/01/23 05:43:39;;;;;;;5.40;1.90;;;9.40;81.90;;;;;;5000576;28;20032;-75
2024/01/23 05:46:06;;;;;;;4.75;1.70;;;9.40;81.90;;;;;;5003601;28;20101;-90
2024/01/23 05:48:32;;;;;;;3.38;1.58;;;9.30;81.80;;;;;;4992002;28;20482;-82
2024/01/23 05:50:58;;;;;;;2.78;1.55;;;9.30;81.90;;;;;;4992747;28;20540;-80
2024/01/23 05:53:24;;;;;;;3.03;1.60;;;9.30;81.80;;;;;;4993491;28;20113;-82
2024/01/23 05:55:50;;;;;;;3.97;1.90;;;9.30;81.90;;;;;;5007596;28;20025;-83
2024/01/23 05:58:15;;;;;;;3.63;1.65;;;9.30;81.90;;;;;;4992092;28;20022;-77
2024/01/23 06:00:41;;;;;;;3.08;1.60;;;9.30;81.90;;;;;;5015714;28;20037;-81
2024/01/23 06:03:08;;;;;;;2.97;1.60;;;9.30;81.90;;;;;;4991331;28;20019;-83
2024/01/23 06:05:34;;;;;;;3.97;1.73;;;9.30;81.90;;;;;;5005624;28;20487;-82
2024/01/23 06:07:59;;;;;;;4.03;1.48;;;9.30;81.90;;;;;;5012718;28;20474;-81
2024/01/23 06:10:26;;;;;;;3.50;1.52;;;9.30;81.90;;;;;;4987110;28;20029;-82
2024/01/23 06:12:52;;;;;;;3.95;1.60;;;9.30;81.90;;;;;;4993045;28;20033;-81
2024/01/23 06:15:18;;;;;;;2.03;1.35;;;9.30;81.90;;;;;;4992618;28;20083;-77
2024/01/23 06:17:44;;;;;;;5.07;1.80;;;9.30;81.90;;;;;;5005230;28;20034;-85
2024/01/23 06:20:12;;;;;;;3.42;1.70;;;9.30;81.90;;;;;;5011498;28;20026;-82
2024/01/23 06:22:40;;;;;;;3.67;1.40;;;9.30;81.90;;;;;;5010411;28;20021;-81
2024/01/23 06:25:08;;;;;;;4.18;1.60;;;9.30;81.90;;;;;;4990493;28;20026;-75
2024/01/23 06:27:35;;;;;;;2.80;1.58;;;9.30;81.90;;;;;;4990623;28;20089;-88
2024/01/23 06:30:00;;;;;;;5.10;1.98;;;9.30;81.90;;;;;;4996792;28;20414;-75
2024/01/23 06:32:26;;;;;;;3.85;1.65;;;9.20;81.90;;;;;;4986193;28;20034;-81
2024/01/23 06:34:52;;;;;;;3.47;1.70;;;9.30;82.00;;;;;;4991845;28;20049;-82
2024/01/23 06:37:21;;;;;;;2.25;1.60;;;9.20;81.90;;;;;;4989973;28;20049;-75
2024/01/23 06:39:47;;;;;;;3.20;1.60;;;9.20;81.90;;;;;;5002049;28;20116;-87
2024/01/23 06:42:13;;;;;;;3.90;1.73;;;9.20;81.90;;;;;;5018076;28;20022;-85
2024/01/23 06:44:39;;;;;;;4.20;1.45;;;9.20;81.90;;;;;;5006478;28;20018;-81
2024/01/23 06:47:05;;;;;;;3.97;1.70;;;9.20;81.90;;;;;;5007184;28;20109;-82
2024/01/23 06:49:31;;;;;;;3.45;1.50;;;9.20;82.00;;;;;;4998495;28;20036;-82
2024/01/23 06:51:57;;;;;;;4.15;1.60;;;9.10;81.90;;;;;;5003549;28;20478;-75
2024/01/23 06:54:23;;;;;;;3.55;1.48;;;9.20;82.00;;;;;;4991803;28;20219;-82
2024/01/23 06:56:49;;;;;;;3.72;1.80;;;9.10;81.90;;;;;;5007402;28;20069;-82
2024/01/23 06:59:15;;;;;;;4.45;1.63;;;9.10;81.90;;;;;;5000667;28;20058;-86
2024/01/23 07:01:41;;;;;;;3.10;1.50;;;9.10;81.90;;;;;;5010337;28;20109;-85
2024/01/23 07:04:07;;;;;;;2.47;1.50;;;9.10;82.00;;;;;;4993183;28;20098;-82
2024/01/23 07:06:33;;;;;;;2.63;1.67;;;9.10;81.90;;;;;;5005442;28;20603;-82
2024/01/23 07:09:04;;;;;;;4.18;2.17;;;9.10;81.90;;;;;;5009281;28;20038;-82
2024/01/23 07:11:30;;;;;;;2.78;1.25;;;9.10;81.90;;;;;;4983704;28;20030;-77
2024/01/23 07:13:56;;;;;;;2.60;1.50;;;9.00;81.90;;;;;;5006818;28;20075;-82
2024/01/23 07:16:22;;;;;;;2.92;1.50;;;9.00;81.90;;;;;;5003007;28;20022;-76
2024/01/23 07:18:48;;;;;;;2.80;1.30;;;9.00;81.90;;;;;;5006257;28;20032;-82
2024/01/23 07:21:14;;;;;;;2.40;1.50;;;9.00;81.90;;;;;;4998332;28;20498;-81
2024/01/23 07:23:39;;;;;;;3.13;1.77;;;9.00;81.90;;;;;;4995491;28;20385;-81
2024/01/23 07:26:05;;;;;;;2.55;1.50;;;9.00;81.90;;;;;;4992647;28;20041;-75
2024/01/23 07:28:31;;;;;;;2.33;1.50;;;9.00;81.90;;;;;;5002997;28;20069;-87
2024/01/23 07:30:57;;;;;;;4.63;1.60;;;9.00;81.90;;;;;;5018593;28;20037;-75
2024/01/23 07:33:23;;;;;;;3.10;1.95;;;8.90;81.90;;;;;;5006768;28;20557;-81
2024/01/23 07:35:50;;;;;;;4.15;1.98;;;8.90;81.90;;;;;;5006087;28;20097;-81
2024/01/23 07:38:16;;;;;;;2.72;1.45;;;8.90;81.80;;;;;;4996714;28;20418;-89
2024/01/23 07:40:42;;;;;;;3.70;1.52;;;8.90;81.90;;;;;;5003478;28;20030;-75
2024/01/23 07:43:07;;;;;;;4.65;1.90;;;8.90;81.90;;;;;;4997834;28;20023;-83
2024/01/23 07:45:35;;;;;;;3.17;1.85;;;8.90;81.90;;;;;;4996608;28;20037;-76
2024/01/23 07:48:00;;;;;;;3.63;1.65;;;8.80;81.80;;;;;;5004362;28;20033;-91
2024/01/23 07:50:29;;;;;;;3.58;1.60;;;8.90;81.90;;;;;;5009871;28;20482;-82
2024/01/23 07:52:55;;;;;;;2.63;1.42;;;8.80;81.80;;;;;;5006011;28;20025;-75
2024/01/23 07:55:22;;;;;;;3.13;1.55;;;8.80;81.80;;;;;;4996772;28;20026;-92
2024/01/23 07:57:49;;;;;;;2.47;1.52;;;8.80;81.90;;;;;;5016508;28;20026;-88
2024/01/23 08:00:18;;;;;;;2.35;1.42;;;8.80;81.90;;;;;;4996900;28;20030;-82
2024/01/23 08:02:44;;;;;;;2.00;1.38;;;8.70;81.80;;;;;;5001343;28;20066;-81
2024/01/23 08:05:11;;;;;;;3.15;1.58;;;8.70;81.80;;;;;;5012191;28;20024;-88
2024/01/23 08:07:38;;;;;;;3.45;1.70;;;8.80;81.90;;;;;;5010659;28;20026;-81
2024/01/23 08:10:04;;;;;;;2.10;1.40;;;8.70;81.90;;;;;;5009343;28;20038;-81
2024/01/23 08:12:30;;;;;;;2.72;1.60;;;8.70;81.80;;;;;;5007466;28;20053;-89
2024/01/23 08:14:55;;;;;;;1.90;1.40;;;8.70;81.80;;;;;;5013164;28;20111;-81
2024/01/23 08:17:21;;;;;;;2.95;1.65;;;8.70;81.80;;;;;;4993163;28;20079;-75
2024/01/23 08:19:47;;;;;;;5.28;1.75;;;8.60;81.80;;;;;;4982455;28;20038;-81
2024/01/23 08:22:13;;;;;;;2.08;1.33;;;8.60;81.80;;;;;;5000007;28;20034;-90
2024/01/23 08:24:38;;;;;;;4.10;1.70;;;8.60;81.80;;;;;;4994112;28;20026;-88
2024/01/23 08:27:04;;;;;;;3.95;1.60;;;8.60;81.80;;;;;;5005240;28;20140;-76
2024/01/23 08:29:30;;;;;;;3.85;1.70;;;8.60;81.80;;;;;;4995858;28;20509;-76
2024/01/23 08:31:56;;;;;;;4.18;1.73;;;8.60;81.90;;;;;;4992690;28;20056;-80
2024/01/23 08:34:22;;;;;;;3.17;1.60;;;8.60;81.90;;;;;;5006569;28;20026;-75
2024/01/23 08:36:48;;;;;;;2.00;1.38;;;8.60;82.50;;;;;;4986456;28;20023;-91
2024/01/23 08:39:15;;;;;;;2.63;1.75;;;8.60;81.90;;;;;;5010631;28;20136;-80
2024/01/23 08:41:41;;;;;;;3.67;1.63;;;8.50;81.90;;;;;;5005818;28;20466;-88
2024/01/23 08:44:07;;;;;;;2.40;1.60;;;8.50;81.90;;;;;;5002974;28;20092;-75
2024/01/23 08:46:33;;;;;;;2.55;1.50;;;8.50;82.60;;;;;;4992386;28;20034;-81
2024/01/23 08:49:00;;;;;;;3.50;1.67;;;8.50;82.00;;;;;;5007799;28;21165;-75
2024/01/23 08:51:28;;;;;;;3.22;1.63;;;8.50;82.00;;;;;;5011849;28;20081;-88
2024/01/23 08:53:54;;;;;;;2.97;1.50;;;8.50;82.00;;;;;;5009504;28;20042;-75
2024/01/23 08:56:24;;;;;;;4.80;1.73;;;8.50;82.10;;;;;;5007489;28;20152;-75
2024/01/23 08:58:50;;;;;;;2.40;1.40;;;8.40;81.90;;;;;;4991605;28;20605;-87
2024/01/23 09:01:17;;;;;;;4.00;1.80;;;8.40;81.90;;;;;;5000780;28;20022;-75
2024/01/23 09:03:44;;;;;;;4.30;1.70;;;8.40;81.90;;;;;;5006265;28;20021;-80
2024/01/23 09:06:10;;;;;;;3.38;1.58;;;8.40;81.90;;;;;;5013219;28;20030;-80
2024/01/23 09:08:36;;;;;;;3.45;1.50;;;8.40;82.00;;;;;;4988645;28;20489;-81
2024/01/23 09:11:02;;;;;;;5.00;1.70;;;8.40;82.00;;;;;;5003253;28;20030;-75
2024/01/23 09:13:31;;;;;;;3.35;1.80;;;8.40;82.00;;;;;;5006628;28;20032;-75
2024/01/23 09:15:58;;;;;;;5.35;1.70;;;8.50;82.00;;;;;;5006589;28;20107;-75
2024/01/23 09:18:24;;;;;;;4.78;1.58;;;8.40;82.00;;;;;;4992507;28;20034;-88
2024/01/23 09:20:50;;;;;;;5.07;1.88;;;8.40;82.00;;;;;;4999267;28;20088;-81
2024/01/23 09:23:17;;;;;;;2.58;1.60;;;8.50;82.00;;;;;;5006837;28;20083;-79
2024/01/23 09:25:42;;;;;;;4.05;1.70;;;8.40;81.90;;;;;;5000192;28;20049;-81
2024/01/23 09:28:08;;;;;;;4.28;1.95;;;8.40;81.90;;;;;;4994604;28;20026;-82
2024/01/23 09:30:34;;;;;;;1.80;1.40;;;8.40;81.80;;;;;;4993099;28;20054;-79
2024/01/23 09:33:02;;;;;;;3.75;2.00;;;8.50;81.90;;;;;;4992856;28;20394;-82
2024/01/23 09:35:29;;;;;;;6.30;2.10;;;8.50;81.90;;;;;;4994358;28;20030;-83
2024/01/23 09:37:55;;;;;;;5.25;1.90;;;8.50;81.90;;;;;;4992088;28;20087;-82
2024/01/23 09:40:21;;;;;;;3.55;1.80;;;8.50;81.90;;;;;;5008128;28;20021;-80
2024/01/23 09:42:47;;;;;;;3.30;1.75;;;8.50;81.80;;;;;;5004410;28;20021;-75
2024/01/23 09:45:17;;;;;;;3.53;1.83;;;8.50;81.80;;;;;;5004722;28;20079;-80
2024/01/23 09:47:49;;;;;;;4.35;1.90;;;8.50;82.50;;;;;;5008152;28;20034;-88
2024/01/23 09:50:20;;;;;;;3.53;1.67;;;8.50;82.10;;;;;;5006822;28;20030;-81
2024/01/23 09:52:47;;;;;;;4.68;1.83;;;8.50;81.80;;;;;;5007551;28;20466;-86
2024/01/23 09:55:12;;;;;;;5.50;1.95;;;8.50;81.90;;;;;;5007026;28;20031;-81
2024/01/23 09:57:39;;;;;;;3.25;1.70;;;8.50;81.80;;;;;;4990424;28;20161;-83
2024/01/23 10:00:11;;;;;;;5.30;2.22;;;8.50;81.80;;;;;;5012155;28;20056;-86
2024/01/23 10:02:42;;;;;;;3.30;1.75;;;8.50;81.90;;;;;;5002484;28;20061;-83
2024/01/23 10:05:10;;;;;;;3.35;1.60;;;8.50;81.90;;;;;;4987534;28;20520;-75
2024/01/23 10:07:37;;;;;;;4.53;1.98;;;8.50;81.90;;;;;;4983687;28;20026;-80
2024/01/23 10:10:13;;;;;;;3.22;1.60;;;8.50;81.90;;;;;;5006129;28;20121;-83
2024/01/23 10:12:44;;;;;;;5.13;1.80;;;8.50;81.90;;;;;;4988841;28;20085;-81
2024/01/23 10:15:11;;;;;;;4.32;1.90;;;8.50;81.90;;;;;;5001615;28;20025;-82
2024/01/23 10:17:37;;;;;;;6.07;2.42;;;8.60;82.00;;;;;;5007000;28;20031;-81
2024/01/23 10:20:04;;;;;;;3.40;1.77;;;8.50;82.00;;;;;;5001960;28;20036;-88
2024/01/23 10:22:30;;;;;;;4.32;1.83;;;8.60;82.00;;;;;;5001765;28;20402;-81
2024/01/23 10:24:56;;;;;;;4.88;2.13;;;8.60;82.00;;;;;;4990468;28;20033;-75
2024/01/23 10:27:21;;;;;;;3.75;1.67;;;8.60;82.00;;;;;;4979856;28;20088;-82
2024/01/23 10:29:49;;;;;;;3.90;1.73;;;8.60;82.00;;;;;;4984101;28;20469;-88
2024/01/23 10:32:14;;;;;;;4.93;2.08;;;8.60;82.00;;;;;;4996471;28;20053;-75
2024/01/23 10:34:41;;;;;;;2.65;1.75;;;8.60;82.00;;;;;;4998416;28;20053;-87
2024/01/23 10:37:08;;;;;;;4.60;1.73;;;8.60;82.70;;;;;;5001441;28;20101;-82
2024/01/23 10:39:35;;;;;;;2.97;1.77;;;8.70;82.10;;;;;;5011610;28;20486;-89
2024/01/23 10:42:02;;;;;;;6.00;2.10;;;8.60;82.10;;;;;;5004970;28;20034;-75
2024/01/23 10:44:30;;;;;;;4.35;1.58;;;8.70;82.10;;;;;;5010623;28;20025;-89
2024/01/23 10:46:56;;;;;;;3.72;1.70;;;8.70;82.10;;;;;;5005462;28;20022;-76
2024/01/23 10:49:22;;;;;;;3.20;1.80;;;8.70;82.10;;;;;;4987895;28;20025;-80
2024/01/23 10:51:51;;;;;;;5.07;2.30;;;8.70;82.10;;;;;;5008099;28;20033;-82
2024/01/23 10:54:30;;;;;;;3.00;1.70;;;8.70;82.10;;;;;;5008430;28;20065;-89
2024/01/23 10:56:57;;;;;;;4.00;1.70;;;8.80;82.20;;;;;;4980177;28;20030;-89
2024/01/23 10:59:34;;;;;;;4.30;2.00;;;8.80;82.10;;;;;;5007681;28;20486;-81
2024/01/23 11:02:05;;;;;;;3.30;1.90;;;8.80;82.10;;;;;;5012630;28;20075;-80
2024/01/23 11:04:32;;;;;;;4.75;1.95;;;8.80;82.70;;;;;;5025160;28;20044;-81
2024/01/23 11:07:15;;;;;;;2.83;1.38;;;8.80;82.10;;;;;;4997027;28;20018;-86
2024/01/23 11:09:54;;;;;;;3.97;1.75;;;8.80;82.10;;;;;;5007168;28;20054;-82
2024/01/23 11:12:48;;;;;;;3.20;1.80;;;8.90;82.20;;;;;;5004319;28;20026;-82
2024/01/23 11:15:16;;;;;;;4.80;1.90;;;8.90;82.20;;;;;;5010816;28;20112;-80
2024/01/23 11:17:42;;;;;;;3.65;2.03;;;8.90;82.10;;;;;;4991721;28;20451;-75
2024/01/23 11:20:13;;;;;;;3.97;2.10;;;8.90;82.10;;;;;;4991514;28;20053;-82
2024/01/23 11:22:42;;;;;;;6.38;1.98;;;8.90;82.20;;;;;;5007916;28;20069;-79
2024/01/23 11:25:11;;;;;;;3.60;1.80;;;8.90;82.10;;;;;;4985899;28;20026;-82
2024/01/23 11:27:41;;;;;;;4.72;2.20;;;8.90;82.10;;;;;;4994297;28;20053;-89
2024/01/23 11:30:17;;;;;;;3.97;1.92;;;9.00;82.20;;;;;;5005511;28;20134;-84
2024/01/23 11:32:42;;;;;;;3.20;1.90;;;9.00;82.30;;;;;;5009115;28;20053;-90
2024/01/23 11:35:12;;;;;;;3.47;1.80;;;9.00;82.10;;;;;;4995832;28;20148;-75
2024/01/23 11:37:46;;;;;;;3.95;1.70;;;9.00;82.20;;;;;;5004926;28;20022;-82
2024/01/23 11:40:27;;;;;;;4.07;2.65;;;9.00;82.30;;;;;;5009766;28;20026;-75
2024/01/23 11:42:54;;;;;;;3.80;1.70;;;9.10;82.90;;;;;;5009181;28;20036;-93
2024/01/23 11:45:27;;;;;;;3.72;2.05;;;9.10;82.20;;;;;;5009338;28;20019;-79
2024/01/23 11:47:58;;;;;;;4.55;2.13;;;9.10;82.20;;;;;;4986094;28;20084;-82
2024/01/23 11:50:26;;;;;;;5.38;2.25;;;9.10;82.20;;;;;;4998133;28;20026;-81
2024/01/23 11:52:54;;;;;;;5.18;2.28;;;9.10;82.20;;;;;;5007464;28;20022;-76
2024/01/23 11:55:21;;;;;;;4.10;1.88;;;9.20;82.30;;;;;;5010625;28;20022;-81
2024/01/23 11:57:50;;;;;;;2.88;1.63;;;9.20;82.30;;;;;;5010921;28;20022;-76
2024/01/23 12:00:18;;;;;;;5.78;2.33;;;9.20;82.20;;;;;;4992813;28;20042;-89
2024/01/23 12:02:45;;;;;;;3.92;2.03;;;9.20;82.20;;;;;;5013455;28;20048;-82
2024/01/23 12:05:11;;;;;;;3.73;1.87;;;9.20;82.20;;;;;;5008657;28;20021;-79
2024/01/23 12:07:39;;;;;;;4.32;1.80;;;9.30;82.30;;;;;;5005344;28;20073;-76
2024/01/23 12:10:09;;;;;;;5.38;2.42;;;9.30;82.20;;;;;;5016189;28;20413;-86
2024/01/23 12:12:36;;;;;;;5.50;1.98;;;9.30;82.30;;;;;;5012308;28;20661;-85
2024/01/23 12:15:04;;;;;;;4.82;2.22;;;9.30;82.30;;;;;;5003136;28;20120;-86
2024/01/23 12:17:31;;;;;;;4.30;1.88;;;9.30;82.20;;;;;;4981359;28;20443;-83
2024/01/23 12:19:57;;;;;;;3.72;1.90;;;9.30;82.30;;;;;;5001602;28;20037;-85
2024/01/23 12:22:23;;;;;;;7.13;2.60;;;9.40;82.30;;;;;;4991679;28;20022;-82
2024/01/23 12:24:49;;;;;;;2.97;1.83;;;9.40;82.30;;;;;;5005370;28;20053;-81
2024/01/23 12:27:16;;;;;;;4.60;2.10;;;9.40;82.30;;;;;;5012755;28;20040;-89
2024/01/23 12:29:41;;;;;;;5.63;2.10;;;9.50;82.30;;;;;;4990912;28;20026;-82
2024/01/23 12:32:11;;;;;;;4.35;2.28;;;9.50;82.30;;;;;;5011368;28;20094;-89
2024/01/23 12:34:36;;;;;;;3.67;1.80;;;9.50;82.30;;;;;;5010129;28;20022;-82
2024/01/23 12:37:03;;;;;;;2.83;1.75;;;9.50;82.30;;;;;;4982434;28;20033;-82
2024/01/23 12:39:30;;;;;;;4.40;2.13;;;9.60;82.30;;;;;;5003038;28;20042;-90
2024/01/23 12:41:57;;;;;;;3.92;1.80;;;9.60;82.30;;;;;;4990369;28;20048;-89
2024/01/23 12:44:23;;;;;;;5.05;1.90;;;9.60;82.30;;;;;;5011055;28;20080;-88
2024/01/23 12:46:50;;;;;;;5.55;2.17;;;9.60;82.30;;;;;;5008487;28;20031;-83
2024/01/23 12:49:18;;;;;;;6.07;2.10;;;9.60;82.30;;;;;;5004995;28;20028;-88
2024/01/23 12:51:49;;;;;;;4.63;2.50;;;9.70;82.40;;;;;;5011484;28;20026;-81
2024/01/23 12:54:15;;;;;;;7.10;2.10;;;9.70;82.40;;;;;;5005768;28;20032;-76